Time;durP1;ratioP1;P1;durP2;ratioP2;P2;SDS_P1;SDS_P2;PMS_P1;PMS_P2;Temp;Humidity;BMP_temperature;BMP_pressure;BME280_temperature;BME280_humidity;BME280_pressure;Samples;Min_cycle;Max_cycle;Signal;HPM_P1;HPM_P2
2022/08/26 00:01:40;;;;;;;58.50;43.30;;;;;;;20.52;55.90;100511.88;5077983;28;20056;-76
2022/08/26 00:04:11;;;;;;;63.67;45.75;;;;;;;20.62;56.07;100553.22;5076037;28;20055;-76
2022/08/26 00:06:39;;;;;;;67.20;45.42;;;;;;;20.42;56.33;100532.50;5092966;28;20082;-77
2022/08/26 00:09:13;;;;;;;66.40;46.17;;;;;;;20.30;56.24;100512.47;5093397;28;20084;-77
2022/08/26 00:11:43;;;;;;;59.58;44.17;;;;;;;20.43;56.34;100540.44;5094007;28;20055;-78
2022/08/26 00:14:12;;;;;;;64.57;47.33;;;;;;;20.43;56.40;100563.41;5093719;28;20496;-78
2022/08/26 00:16:41;;;;;;;62.05;44.83;;;;;;;20.41;56.72;100560.81;5099032;28;20086;-76
2022/08/26 00:19:16;;;;;;;65.72;45.67;;;;;;;20.38;56.99;100555.59;5101645;28;20058;-77
2022/08/26 00:21:45;;;;;;;67.15;47.30;;;;;;;20.37;56.82;100551.19;5100109;28;20055;-79
2022/08/26 00:24:16;;;;;;;63.40;45.92;;;;;;;20.36;56.86;100548.56;5097322;28;20044;-78
2022/08/26 00:26:44;;;;;;;61.45;44.22;;;;;;;20.35;57.26;100570.69;5093828;28;20105;-78
2022/08/26 00:29:11;;;;;;;63.03;44.65;;;;;;;20.15;57.22;100516.38;5092628;28;20104;-77
2022/08/26 00:31:39;;;;;;;61.13;44.33;;;;;;;20.35;57.43;100562.75;5092573;28;20056;-78
2022/08/26 00:34:07;;;;;;;54.38;42.13;;;;;;;20.14;57.58;100524.41;5092527;28;20056;-78
2022/08/26 00:36:38;;;;;;;60.05;43.95;;;;;;;20.33;57.62;100559.28;5092797;28;20067;-78
2022/08/26 00:39:07;;;;;;;57.90;43.30;;;;;;;20.31;57.44;100561.09;5092377;28;20063;-79
2022/08/26 00:41:37;;;;;;;62.92;45.35;;;;;;;20.20;57.74;100559.59;5093293;28;20062;-79
2022/08/26 00:44:06;;;;;;;67.10;47.33;;;;;;;20.17;57.63;100562.31;5092426;28;20594;-76
2022/08/26 00:46:38;;;;;;;69.18;49.47;;;;;;;20.13;57.54;100565.06;5092684;28;20052;-78
2022/08/26 00:49:21;;;;;;;72.77;49.33;;;;;;;20.09;57.68;100572.25;5092904;28;20075;-78
2022/08/26 00:51:51;;;;;;;67.65;50.10;;;;;;;19.91;57.76;100543.53;5092446;28;20095;-78
2022/08/26 00:54:19;;;;;;;;;;;;;;;19.81;57.56;100564.06;5092835;28;20055;-78
2022/08/26 00:57:10;;;;;;;65.35;49.28;;;;;;;19.90;58.04;100573.63;5092170;28;20384;-77
2022/08/26 00:59:48;;;;;;;68.50;48.80;;;;;;;19.93;58.06;100565.56;5092684;28;20561;-79
2022/08/26 01:02:15;;;;;;;65.95;49.38;;;;;;;19.93;57.87;100570.88;5092503;28;20531;-77
2022/08/26 01:04:52;;;;;;;76.78;55.22;;;;;;;19.96;57.58;100570.78;5092285;28;20048;-76
2022/08/26 01:07:24;;;;;;;69.70;49.28;;;;;;;20.00;57.69;100567.16;5091848;28;20478;-78
2022/08/26 01:09:54;;;;;;;61.55;46.97;;;;;;;19.99;58.09;100565.44;5094015;28;20052;-77
2022/08/26 01:12:24;;;;;;;67.78;45.75;;;;;;;19.92;58.17;100563.81;5096130;28;20048;-77
2022/08/26 01:14:51;;;;;;;63.08;45.33;;;;;;;19.87;58.39;100560.41;5096252;28;20078;-77
2022/08/26 01:17:18;;;;;;;67.03;46.05;;;;;;;19.81;58.46;100561.41;5096278;28;20059;-78
2022/08/26 01:19:52;;;;;;;60.20;44.30;;;;;;;19.73;58.73;100552.78;5095706;28;20491;-78
2022/08/26 01:22:30;;;;;;;64.63;45.28;;;;;;;19.63;58.62;100546.78;5096560;28;20048;-78
2022/08/26 01:24:59;;;;;;;65.78;45.33;;;;;;;19.72;58.64;100559.00;5095806;28;20423;-78
2022/08/26 01:27:31;;;;;;;70.10;46.97;;;;;;;19.65;58.89;100558.22;5096641;28;20044;-78
2022/08/26 01:30:00;;;;;;;71.90;47.80;;;;;;;19.58;58.82;100553.97;5095878;28;20056;-78
2022/08/26 01:32:31;;;;;;;68.05;48.13;;;;;;;19.41;58.90;100518.13;5096034;28;20514;-78
2022/08/26 01:34:59;;;;;;;65.40;47.55;;;;;;;19.58;58.93;100552.19;5095760;28;20048;-78
2022/08/26 01:37:33;;;;;;;71.53;47.83;;;;;;;19.57;58.92;100554.88;5096048;28;20230;-78
2022/08/26 01:40:01;;;;;;;75.40;47.17;;;;;;;19.59;58.95;100551.28;5095664;28;20055;-77
2022/08/26 01:42:28;;;;;;;72.50;49.10;;;;;;;19.55;59.12;100559.34;5095830;28;20052;-78
2022/08/26 01:45:09;;;;;;;68.13;47.28;;;;;;;19.54;58.85;100557.59;5095100;28;20081;-78
2022/08/26 01:47:37;;;;;;;68.35;45.63;;;;;;;19.56;59.17;100569.91;5095797;28;20059;-77
2022/08/26 01:50:12;;;;;;;65.18;45.65;;;;;;;19.57;59.33;100565.47;5095143;28;20137;-78
2022/08/26 01:52:46;;;;;;;63.55;45.97;;;;;;;19.55;59.28;100567.28;5095604;28;20056;-79
2022/08/26 01:55:21;;;;;;;69.60;46.47;;;;;;;19.40;59.31;100545.53;5077546;28;20483;-77
2022/08/26 01:58:04;;;;;;;64.28;45.40;;;;;;;19.42;59.60;100562.28;5095008;28;20056;-77
2022/08/26 02:00:32;;;;;;;66.40;46.88;;;;;;;19.47;59.49;100569.22;5095433;28;20113;-78
2022/08/26 02:03:17;;;;;;;61.90;45.47;;;;;;;19.48;59.81;100569.22;5095691;28;20048;-78
2022/08/26 02:06:04;;;;;;;63.95;46.00;;;;;;;19.48;59.55;100561.25;5095738;28;20059;-79
2022/08/26 02:08:45;;;;;;;68.78;47.70;;;;;;;19.34;59.56;100529.78;5095143;28;20126;-78
2022/08/26 02:11:13;;;;;;;71.38;48.40;;;;;;;19.52;59.65;100551.47;5095349;28;20120;-78
2022/08/26 02:13:47;;;;;;;76.72;53.88;;;;;;;19.53;59.36;100561.16;5094878;28;20461;-79
2022/08/26 02:16:18;;;;;;;66.38;49.67;;;;;;;19.54;59.49;100576.16;5094926;28;20052;-77
2022/08/26 02:18:46;;;;;;;74.55;49.17;;;;;;;19.55;59.56;100568.19;5095263;28;20060;-77
2022/08/26 02:21:13;;;;;;;71.05;50.17;;;;;;;19.56;59.43;100569.03;5093728;28;20512;-78
2022/08/26 02:23:41;;;;;;;73.03;52.83;;;;;;;19.41;59.42;100539.34;5095022;28;20078;-77
2022/08/26 02:26:14;;;;;;;75.30;53.05;;;;;;;19.57;59.38;100565.47;5094790;28;20488;-78
2022/08/26 02:28:50;;;;;;;75.75;53.75;;;;;;;19.67;58.89;100563.50;5095200;28;20048;-76
2022/08/26 02:31:17;;;;;;;79.53;53.08;;;;;;;19.51;58.85;100526.75;5095033;28;20052;-78
2022/08/26 02:33:43;;;;;;;78.50;51.78;;;;;;;19.82;58.73;100573.78;5095125;28;20113;-77
2022/08/26 02:36:11;;;;;;;79.00;57.35;;;;;;;19.87;58.09;100571.88;5094637;28;20048;-78
2022/08/26 02:38:41;;;;;;;74.43;50.80;;;;;;;19.94;57.86;100577.91;5094369;28;20155;-78
2022/08/26 02:41:10;;;;;;;78.60;54.05;;;;;;;19.99;57.70;100568.94;5094562;28;20052;-79
2022/08/26 02:43:37;;;;;;;78.32;50.95;;;;;;;20.06;57.47;100561.72;5094761;28;20062;-78
2022/08/26 02:46:04;;;;;;;71.30;52.35;;;;;;;20.17;57.08;100578.22;5094377;28;20059;-78
2022/08/26 02:48:32;;;;;;;71.60;49.90;;;;;;;20.18;57.07;100571.16;5094712;28;20083;-77
2022/08/26 02:51:00;;;;;;;84.00;55.05;;;;;;;20.23;57.04;100575.41;5094399;28;20058;-76
2022/08/26 02:53:28;;;;;;;77.57;55.15;;;;;;;20.16;56.73;100536.69;5094624;28;20086;-77
2022/08/26 02:55:57;;;;;;;106.88;72.32;;;;;;;20.48;56.26;100579.22;5094492;28;20083;-77
2022/08/26 02:58:26;;;;;;;89.35;63.05;;;;;;;20.56;56.08;100567.47;5094473;28;20113;-77
2022/08/26 03:00:52;;;;;;;79.93;56.28;;;;;;;20.60;55.98;100574.50;5094073;28;20052;-78
2022/08/26 03:03:20;;;;;;;88.90;56.75;;;;;;;20.68;55.85;100571.63;5094237;28;20293;-78
2022/08/26 03:05:50;;;;;;;96.57;65.05;;;;;;;20.64;55.46;100552.25;5094083;28;20074;-77
2022/08/26 03:08:18;;;;;;;103.72;68.25;;;;;;;20.90;55.07;100576.34;5092957;28;20135;-77
2022/08/26 03:10:46;;;;;;;106.68;73.88;;;;;;;21.04;54.55;100583.03;5093628;28;20135;-75
2022/08/26 03:13:14;;;;;;;116.80;79.38;;;;;;;20.99;54.63;100581.41;5093863;28;20059;-78
2022/08/26 03:15:41;;;;;;;127.35;87.75;;;;;;;20.87;54.52;100569.34;5094172;28;20084;-77
2022/08/26 03:18:09;;;;;;;123.90;84.15;;;;;;;21.05;54.38;100584.75;5093981;28;20056;-78
2022/08/26 03:20:37;;;;;;;123.22;81.88;;;;;;;21.05;54.12;100566.16;5093513;28;20056;-78
2022/08/26 03:23:04;;;;;;;121.90;82.93;;;;;;;21.20;53.80;100577.28;5093948;28;20044;-78
2022/08/26 03:25:32;;;;;;;121.20;84.07;;;;;;;21.36;53.31;100575.00;5093401;28;20063;-78
2022/08/26 03:28:01;;;;;;;126.03;83.65;;;;;;;21.43;53.40;100584.59;5093955;28;20499;-80
2022/08/26 03:30:41;;;;;;;122.93;84.82;;;;;;;21.35;53.05;100547.56;5093864;28;20058;-79
2022/08/26 03:33:12;;;;;;;123.68;84.88;;;;;;;22.64;50.22;100563.81;5093925;28;20135;-78
2022/08/26 03:35:42;;;;;;;119.05;84.43;;;;;;;24.12;46.83;100586.63;5093721;28;20059;-77
2022/08/26 03:38:10;;;;;;;124.22;83.75;;;;;;;24.14;46.45;100578.56;5093651;28;20122;-77
2022/08/26 03:40:37;;;;;;;123.20;83.30;;;;;;;23.91;47.05;100582.19;5075389;28;20465;-81
2022/08/26 03:43:06;;;;;;;112.55;84.63;;;;;;;24.03;46.45;100563.00;5093297;28;20056;-77
2022/08/26 03:45:36;;;;;;;118.97;84.07;;;;;;;24.12;46.48;100586.63;5093334;28;20108;-77
2022/08/26 03:48:04;;;;;;;115.25;82.25;;;;;;;23.98;46.63;100590.78;5074612;28;20048;-79
2022/08/26 03:50:31;;;;;;;115.65;80.65;;;;;;;23.82;46.98;100578.09;5093439;28;20538;-77
2022/08/26 03:53:02;;;;;;;106.82;79.05;;;;;;;24.02;46.64;100582.59;5093214;28;20052;-80
2022/08/26 03:55:31;;;;;;;124.32;81.68;;;;;;;24.27;46.25;100592.28;5094796;28;20055;-77
2022/08/26 03:57:59;;;;;;;113.70;78.88;;;;;;;24.40;45.79;100581.94;5100620;28;20056;-78
2022/08/26 04:00:27;;;;;;;111.53;77.30;;;;;;;24.50;45.55;100576.19;5093606;28;20052;-78
2022/08/26 04:02:54;;;;;;;113.88;77.82;;;;;;;24.75;45.22;100580.44;5092872;28;20097;-78
2022/08/26 04:05:23;;;;;;;112.25;76.20;;;;;;;24.89;44.81;100580.69;5074937;28;20056;-77
2022/08/26 04:07:51;;;;;;;102.88;76.43;;;;;;;24.75;45.12;100579.56;5093094;28;20052;-76
2022/08/26 04:10:22;;;;;;;102.05;75.45;;;;;;;24.75;45.31;100571.56;5092964;28;20063;-78
2022/08/26 04:12:57;;;;;;;100.00;74.93;;;;;;;24.70;45.21;100580.66;5093037;28;20058;-77
2022/08/26 04:15:26;;;;;;;101.53;72.18;;;;;;;24.71;45.11;100582.38;5092751;28;20463;-78
2022/08/26 04:17:53;;;;;;;110.40;72.43;;;;;;;24.75;45.46;100592.94;5093216;28;20044;-77
2022/08/26 04:20:21;;;;;;;106.80;73.93;;;;;;;24.91;44.89;100584.19;5092694;28;20095;-77
2022/08/26 04:22:49;;;;;;;97.60;69.55;;;;;;;25.13;44.47;100585.88;5092896;28;20143;-77
2022/08/26 04:25:17;;;;;;;103.47;70.15;;;;;;;25.19;44.15;100555.31;5092736;28;20185;-77
2022/08/26 04:27:46;;;;;;;;;;;;;;;25.29;44.47;100583.38;5093474;28;20063;-76
2022/08/26 04:30:15;;;;;;;105.18;72.40;;;;;;;25.52;43.67;100587.66;5073142;28;19965;-78
2022/08/26 04:32:43;;;;;;;100.40;68.82;;;;;;;25.60;43.37;100587.28;5093067;28;20051;-77
2022/08/26 04:35:10;;;;;;;99.28;71.00;;;;;;;25.48;43.34;100586.06;5092755;28;20505;-78
2022/08/26 04:37:37;;;;;;;104.22;72.75;;;;;;;25.58;43.53;100584.69;5092721;28;20512;-75
2022/08/26 04:40:09;;;;;;;100.75;69.47;;;;;;;25.52;43.53;100585.00;5092581;28;20048;-78
2022/08/26 04:42:37;;;;;;;97.07;67.82;;;;;;;25.63;43.35;100588.00;5092993;28;20101;-78
2022/08/26 04:45:05;;;;;;;90.22;66.32;;;;;;;25.78;43.02;100572.19;5095476;28;20059;-79
2022/08/26 04:47:36;;;;;;;94.45;66.22;;;;;;;25.99;42.92;100587.22;5079570;28;20516;-78
2022/08/26 04:50:05;;;;;;;90.18;67.85;;;;;;;26.15;42.56;100574.78;5096848;28;20059;-78
2022/08/26 04:52:35;;;;;;;94.93;64.70;;;;;;;25.94;42.48;100533.03;5097258;28;20076;-77
2022/08/26 04:55:04;;;;;;;91.25;62.83;;;;;;;26.24;42.39;100565.44;5096743;28;20071;-78
2022/08/26 04:57:36;;;;;;;89.78;64.43;;;;;;;26.35;42.26;100576.47;5097020;28;20059;-76
2022/08/26 05:00:05;;;;;;;90.75;64.13;;;;;;;26.40;42.46;100581.59;5096908;28;20071;-77
2022/08/26 05:02:33;;;;;;;88.45;63.78;;;;;;;26.45;42.41;100579.53;5096875;28;20044;-76
2022/08/26 05:05:00;;;;;;;87.70;62.22;;;;;;;26.58;42.29;100590.50;5097346;28;20085;-79
2022/08/26 05:07:30;;;;;;;89.38;62.60;;;;;;;26.63;42.18;100590.25;5098752;28;20044;-81
2022/08/26 05:09:57;;;;;;;79.15;58.63;;;;;;;26.54;41.61;100563.00;5099498;28;20059;-78
2022/08/26 05:12:24;;;;;;;81.00;60.20;;;;;;;26.81;41.47;100586.63;5099583;28;20063;-77
2022/08/26 05:14:52;;;;;;;91.05;61.20;;;;;;;26.95;41.11;100586.78;5096371;28;20060;-78
2022/08/26 05:17:19;;;;;;;77.45;57.05;;;;;;;27.05;40.72;100580.91;5096180;28;20044;-75
2022/08/26 05:19:46;;;;;;;88.32;59.63;;;;;;;27.20;41.08;100595.31;5096627;28;20142;-78
2022/08/26 05:22:16;;;;;;;;;;;;;;;27.16;41.61;100597.28;5096396;28;20056;-78
2022/08/26 05:24:45;;;;;;;82.50;59.90;;;;;;;27.27;40.45;100564.53;5096277;28;19946;-80
2022/08/26 05:27:14;;;;;;;79.45;57.65;;;;;;;27.42;40.46;100577.09;5095730;28;20142;-79
2022/08/26 05:29:43;;;;;;;86.28;58.03;;;;;;;27.62;40.32;100594.78;5096036;28;20051;-79
2022/08/26 05:32:10;;;;;;;81.25;55.33;;;;;;;27.73;39.74;100588.81;5095811;28;20062;-78
2022/08/26 05:34:37;;;;;;;72.15;50.30;;;;;;;27.93;39.19;100604.69;5095842;28;20079;-76
2022/08/26 05:37:09;;;;;;;72.47;49.85;;;;;;;28.02;38.82;100587.16;5095836;28;20134;-80
2022/08/26 05:39:39;;;;;;;73.22;49.42;;;;;;;28.17;38.34;100606.91;5095826;28;20529;-79
2022/08/26 05:42:09;;;;;;;70.40;48.58;;;;;;;28.29;37.95;100606.19;5095590;28;20067;-79
2022/08/26 05:44:36;;;;;;;58.25;45.17;;;;;;;28.23;37.92;100611.91;5095394;28;20447;-77
2022/08/26 05:47:20;;;;;;;58.38;43.70;;;;;;;28.33;37.82;100612.22;5095149;28;20477;-78
2022/08/26 05:49:49;;;;;;;55.17;39.30;;;;;;;28.37;36.88;100616.47;5095721;28;20066;-80
2022/08/26 05:52:18;;;;;;;53.05;38.00;;;;;;;28.36;37.12;100618.28;5095532;28;20052;-81
2022/08/26 05:54:46;;;;;;;53.92;37.35;;;;;;;28.36;36.77;100617.44;5100926;28;20052;-79
2022/08/26 05:57:13;;;;;;;50.28;37.25;;;;;;;28.39;36.83;100618.13;5099258;28;20060;-78
2022/08/26 05:59:40;;;;;;;52.45;36.25;;;;;;;28.52;36.75;100609.34;5095525;28;20067;-78
2022/08/26 06:02:08;;;;;;;49.85;36.72;;;;;;;28.72;36.28;100609.03;5077131;28;20085;-82
2022/08/26 06:04:35;;;;;;;59.63;36.88;;;;;;;28.85;36.61;100619.91;5095037;28;20201;-80
2022/08/26 06:07:02;;;;;;;54.10;35.40;;;;;;;28.86;36.25;100608.16;5094854;28;20063;-80
2022/08/26 06:09:31;;;;;;;49.42;31.90;;;;;;;28.84;35.21;100614.59;5094860;28;20056;-80
2022/08/26 06:12:00;;;;;;;44.10;33.63;;;;;;;28.79;35.34;100617.56;5095024;28;20048;-78
2022/08/26 06:14:29;;;;;;;50.70;35.33;;;;;;;28.75;35.89;100606.13;5095115;28;20052;-80
2022/08/26 06:16:56;;;;;;;53.05;35.65;;;;;;;28.67;35.78;100588.75;5095838;28;20056;-81
2022/08/26 06:19:23;;;;;;;48.95;34.97;;;;;;;28.86;35.89;100610.00;5095540;28;20553;-81
2022/08/26 06:21:51;;;;;;;47.10;34.20;;;;;;;28.91;35.91;100608.78;5095107;28;20051;-80
2022/08/26 06:27:08;;;;;;;44.60;31.20;;;;;;;29.03;35.09;100611.66;5095059;28;20048;-80
2022/08/26 06:29:37;;;;;;;44.17;30.27;;;;;;;28.95;34.93;100595.97;5094825;28;20052;-80
2022/08/26 06:32:05;;;;;;;48.17;31.60;;;;;;;29.07;34.67;100611.38;5094479;28;20486;-81
2022/08/26 06:34:33;;;;;;;43.38;30.20;;;;;;;29.12;34.83;100617.34;5095046;28;20052;-80
2022/08/26 06:37:04;;;;;;;43.83;29.20;;;;;;;29.18;34.02;100606.22;5094797;28;20143;-79
2022/08/26 06:39:32;;;;;;;42.40;28.27;;;;;;;29.24;34.13;100614.88;5094957;28;20063;-79
2022/08/26 06:42:00;;;;;;;40.13;28.70;;;;;;;29.38;33.80;100612.16;5094416;28;20101;-79
2022/08/26 06:44:32;;;;;;;39.33;27.55;;;;;;;29.45;33.63;100608.13;5094518;28;20063;-78
2022/08/26 06:46:59;;;;;;;43.85;28.02;;;;;;;29.53;32.97;100607.63;5076344;28;20432;-79
2022/08/26 06:49:26;;;;;;;39.10;26.10;;;;;;;29.46;33.29;100609.00;5094236;28;20496;-80
2022/08/26 06:51:57;;;;;;;36.92;27.75;;;;;;;29.35;33.28;100598.91;5076579;28;20048;-78
2022/08/26 06:54:27;;;;;;;40.30;26.27;;;;;;;29.54;33.22;100617.44;5076081;28;20469;-79
2022/08/26 06:56:56;;;;;;;36.28;25.08;;;;;;;29.67;32.75;100618.38;5094334;28;20052;-79
2022/08/26 06:59:24;;;;;;;44.53;26.60;;;;;;;29.73;32.36;100609.94;5094186;28;20067;-77
2022/08/26 07:01:51;;;;;;;41.22;24.77;;;;;;;29.76;32.30;100600.78;5094178;28;20086;-79
2022/08/26 07:04:20;;;;;;;36.88;25.02;;;;;;;29.97;31.70;100602.06;5093822;28;20052;-80
2022/08/26 07:06:51;;;;;;;38.05;25.00;;;;;;;30.04;31.57;100582.81;5093715;28;20048;-79
2022/08/26 07:09:26;;;;;;;35.95;23.00;;;;;;;30.20;31.27;100611.34;5078553;28;20131;-79
2022/08/26 07:11:55;;;;;;;31.83;20.58;;;;;;;30.14;30.77;100594.72;5093626;28;20082;-79
2022/08/26 07:14:24;;;;;;;;;;;;;;;30.09;31.97;100604.91;5093953;28;20113;-77
2022/08/26 07:16:53;;;;;;;34.78;20.77;;;;;;;30.28;31.09;100601.84;5092710;28;19931;-78
2022/08/26 07:19:23;;;;;;;33.03;21.88;;;;;;;30.38;30.75;100590.38;5093692;28;20090;-80
2022/08/26 07:22:04;;;;;;;34.25;21.33;;;;;;;30.53;30.42;100598.41;5094149;28;20093;-81
2022/08/26 07:24:35;;;;;;;28.33;18.52;;;;;;;30.62;29.93;100606.69;5075282;28;20058;-81
2022/08/26 07:27:06;;;;;;;25.75;17.95;;;;;;;30.65;29.84;100597.53;5075628;28;20139;-79
2022/08/26 07:29:36;;;;;;;28.45;17.27;;;;;;;30.70;29.57;100602.63;5090206;28;20059;-78
2022/08/26 07:32:03;;;;;;;;;;;;;;;30.37;30.82;100603.94;5073697;28;20139;-76
2022/08/26 07:34:33;;;;;;;27.70;17.10;;;;;;;30.39;29.65;100577.75;5083815;28;19924;-78
2022/08/26 07:37:01;;;;;;;29.67;17.20;;;;;;;30.58;29.24;100580.06;5082384;28;20492;-77
2022/08/26 07:39:28;;;;;;;23.90;15.63;;;;;;;30.79;28.86;100604.69;5082130;28;20059;-77
2022/08/26 07:42:00;;;;;;;22.05;15.27;;;;;;;30.68;29.12;100586.56;5091217;28;20052;-80
2022/08/26 07:44:36;;;;;;;28.95;15.07;;;;;;;30.79;28.91;100602.84;5093089;28;20446;-78
2022/08/26 07:47:04;;;;;;;20.30;13.80;;;;;;;30.87;29.03;100588.88;5093037;28;20438;-81
2022/08/26 07:49:50;;;;;;;26.25;17.73;;;;;;;30.97;29.11;100599.84;5093532;28;20056;-79
2022/08/26 07:52:20;;;;;;;30.23;17.15;;;;;;;30.85;29.39;100573.69;5093033;28;20056;-80
2022/08/26 07:54:54;;;;;;;31.27;19.23;;;;;;;31.01;29.78;100593.28;5093090;28;20052;-78
2022/08/26 07:57:21;;;;;;;25.38;15.52;;;;;;;30.97;28.93;100592.63;5091682;28;20089;-80
2022/08/26 07:59:50;;;;;;;21.03;16.43;;;;;;;30.97;28.84;100602.56;5093696;28;20415;-80
2022/08/26 08:02:23;;;;;;;23.20;16.02;;;;;;;31.00;28.77;100594.25;5093095;28;20508;-84
2022/08/26 08:04:51;;;;;;;24.13;15.63;;;;;;;30.97;28.83;100591.75;5093360;28;20051;-78
2022/08/26 08:07:18;;;;;;;24.85;15.82;;;;;;;31.03;28.76;100594.03;5092762;28;20086;-79
2022/08/26 08:09:48;;;;;;;22.48;13.70;;;;;;;30.99;28.28;100584.44;5092918;28;20044;-79
2022/08/26 08:12:17;;;;;;;21.98;14.07;;;;;;;30.99;28.54;100595.22;5092663;28;20071;-79
2022/08/26 08:14:47;;;;;;;21.80;14.65;;;;;;;30.96;28.42;100590.91;5074554;28;20059;-78
2022/08/26 08:17:15;;;;;;;27.38;14.38;;;;;;;30.94;28.28;100579.34;5092878;28;20048;-79
2022/08/26 08:19:42;;;;;;;25.08;12.88;;;;;;;30.92;27.57;100565.13;5091997;28;20051;-78
2022/08/26 08:22:09;;;;;;;18.42;12.50;;;;;;;31.13;27.24;100580.75;5074440;28;20361;-79
2022/08/26 08:24:45;;;;;;;21.92;12.95;;;;;;;31.06;27.55;100552.47;5092704;28;20051;-79
2022/08/26 08:27:19;;;;;;;18.23;10.70;;;;;;;31.18;26.09;100578.59;5075121;28;20091;-81
2022/08/26 08:29:53;;;;;;;13.38;9.02;;;;;;;31.18;25.52;100582.13;5093908;28;20523;-78
2022/08/26 08:32:22;;;;;;;13.95;10.15;;;;;;;31.10;25.50;100548.59;5092844;28;20059;-80
2022/08/26 08:34:49;;;;;;;16.17;10.15;;;;;;;31.33;25.76;100587.41;5092151;28;20460;-78
2022/08/26 08:37:16;;;;;;;14.23;10.52;;;;;;;31.43;25.44;100586.66;5092500;28;20052;-77
2022/08/26 08:39:43;;;;;;;18.45;11.45;;;;;;;31.48;26.03;100586.34;5092764;28;20063;-79
2022/08/26 08:42:33;;;;;;;14.00;10.88;;;;;;;31.50;25.95;100576.28;5092669;28;20094;-79
2022/08/26 08:45:09;;;;;;;16.67;12.07;;;;;;;31.47;26.12;100579.22;5092827;28;20121;-81
2022/08/26 08:47:57;;;;;;;17.30;10.90;;;;;;;31.39;26.26;100573.47;5092398;28;20500;-78
2022/08/26 08:50:34;;;;;;;17.20;11.68;;;;;;;31.52;26.54;100577.03;5092314;28;20056;-78
2022/08/26 08:53:09;;;;;;;17.63;12.00;;;;;;;31.65;26.67;100578.84;5093214;28;20044;-80
2022/08/26 08:55:51;;;;;;;17.25;11.75;;;;;;;31.82;26.27;100573.91;5074511;28;20055;-81
2022/08/26 08:58:23;;;;;;;19.60;12.40;;;;;;;31.87;26.41;100578.09;5092411;28;20068;-79
2022/08/26 09:00:59;;;;;;;18.63;13.68;;;;;;;31.88;26.68;100569.91;5092652;28;20135;-79
2022/08/26 09:03:31;;;;;;;17.35;12.88;;;;;;;31.84;26.38;100576.50;5092393;28;20519;-77
2022/08/26 09:06:00;;;;;;;18.75;11.40;;;;;;;31.75;26.28;100563.66;5074672;28;20052;-80
2022/08/26 09:08:34;;;;;;;19.05;11.65;;;;;;;31.79;26.60;100570.56;5091941;28;20052;-81
2022/08/26 09:11:03;;;;;;;20.38;12.95;;;;;;;31.62;26.47;100526.78;5092360;28;20180;-79
2022/08/26 09:13:30;;;;;;;18.02;13.50;;;;;;;31.92;26.89;100573.22;5091816;28;20419;-78
2022/08/26 09:16:00;;;;;;;16.55;12.32;;;;;;;31.91;26.12;100560.69;5092171;28;20508;-77
2022/08/26 09:18:52;;;;;;;17.77;12.43;;;;;;;31.90;26.46;100556.25;5089084;28;20070;-81
2022/08/26 09:21:22;;;;;;;27.25;14.10;;;;;;;31.95;26.56;100565.75;5090924;28;20144;-79
2022/08/26 09:23:54;;;;;;;16.88;12.63;;;;;;;31.89;26.35;100562.66;5091976;28;20059;-76
2022/08/26 09:26:24;;;;;;;19.35;12.07;;;;;;;31.94;26.48;100560.44;5091736;28;20055;-79
2022/08/26 09:28:59;;;;;;;19.80;12.90;;;;;;;32.08;26.34;100557.59;5092513;28;20056;-83
2022/08/26 09:31:29;;;;;;;17.95;12.02;;;;;;;32.11;26.08;100565.47;5095265;28;20516;-80
2022/08/26 09:34:12;;;;;;;20.40;12.25;;;;;;;31.99;26.27;100552.91;5096450;28;20458;-81
2022/08/26 09:36:49;;;;;;;14.88;11.82;;;;;;;32.14;26.00;100550.88;5097248;28;20593;-79
2022/08/26 09:39:36;;;;;;;15.68;11.65;;;;;;;32.17;25.74;100556.91;5096285;28;20056;-80
2022/08/26 09:42:21;;;;;;;17.63;11.32;;;;;;;32.28;25.57;100552.53;5096357;28;20465;-82
2022/08/26 09:44:59;;;;;;;15.88;11.75;;;;;;;32.37;25.11;100543.69;5094916;28;20487;-83
2022/08/26 09:47:37;;;;;;;17.75;11.95;;;;;;;32.42;25.00;100539.66;5095817;28;20044;-80
2022/08/26 09:50:27;;;;;;;19.25;11.60;;;;;;;32.56;24.68;100545.88;5078212;28;20126;-80
2022/08/26 09:53:15;;;;;;;14.93;10.18;;;;;;;32.50;24.22;100539.06;5096087;28;20048;-80
2022/08/26 09:55:53;;;;;;;15.23;10.15;;;;;;;32.39;24.12;100520.97;5077574;28;20054;-79
2022/08/26 09:58:31;;;;;;;16.70;10.32;;;;;;;32.39;23.64;100537.19;5095927;28;20077;-80
2022/08/26 10:01:01;;;;;;;16.48;10.93;;;;;;;32.36;23.88;100537.44;5104437;28;20108;-78
2022/08/26 10:03:32;;;;;;;14.27;11.00;;;;;;;32.50;23.64;100540.91;5106548;28;20437;-78
2022/08/26 10:06:01;;;;;;;13.23;10.00;;;;;;;32.60;23.29;100520.31;5105795;28;20059;-79
2022/08/26 10:08:40;;;;;;;14.13;10.35;;;;;;;32.67;22.85;100535.06;5096312;28;20048;-82
2022/08/26 10:11:23;;;;;;;14.27;9.07;;;;;;;32.73;22.14;100494.00;5095426;28;20062;-82
2022/08/26 10:13:56;;;;;;;14.07;10.02;;;;;;;32.95;22.30;100522.03;5095489;28;20454;-77
2022/08/26 10:16:28;;;;;;;18.90;9.40;;;;;;;32.86;22.47;100520.94;5095360;28;20052;-80
2022/08/26 10:19:31;;;;;;;14.27;9.55;;;;;;;33.02;22.65;100532.28;5095663;28;20051;-79
2022/08/26 10:22:29;;;;;;;18.05;10.32;;;;;;;33.30;22.02;100521.94;5071001;28;20442;-79
2022/08/26 10:25:00;;;;;;;12.82;9.38;;;;;;;33.22;21.94;100487.38;5095264;28;20147;-80
2022/08/26 10:27:47;;;;;;;11.82;9.20;;;;;;;33.20;21.45;100512.84;5076795;28;20052;-79
2022/08/26 10:30:24;;;;;;;13.93;9.88;;;;;;;33.22;21.22;100519.00;5096894;28;20047;-81
2022/08/26 10:33:02;;;;;;;14.30;9.15;;;;;;;33.24;21.21;100522.44;5095464;28;20214;-82
2022/08/26 10:35:31;;;;;;;11.73;9.60;;;;;;;33.20;21.04;100510.16;5095238;28;20058;-78
2022/08/26 10:38:06;;;;;;;11.73;8.80;;;;;;;33.38;20.77;100508.63;5095828;28;20503;-81
2022/08/26 10:41:05;;;;;;;13.73;9.18;;;;;;;33.35;21.25;100508.88;5094492;28;20504;-80
2022/08/26 10:43:43;;;;;;;15.70;9.85;;;;;;;33.30;21.48;100513.81;5083413;28;20059;-81
2022/08/26 10:46:21;;;;;;;13.32;9.43;;;;;;;33.49;20.96;100504.16;5093658;28;20052;-81
2022/08/26 10:49:05;;;;;;;12.55;9.93;;;;;;;33.72;20.59;100500.44;5094064;28;20139;-79
2022/08/26 10:51:41;;;;;;;10.38;9.27;;;;;;;33.71;20.00;100508.69;5076400;28;20044;-78
2022/08/26 10:54:38;;;;;;;12.98;9.45;;;;;;;33.41;20.65;100489.44;5094317;28;20075;-78
2022/08/26 10:57:21;;;;;;;13.02;9.35;;;;;;;33.15;20.83;100487.97;5094209;28;20488;-79
2022/08/26 11:03:10;;;;;;;11.63;9.27;;;;;;;33.10;20.69;100480.25;5063865;28;20060;-78
2022/08/26 11:06:17;;;;;;;17.50;9.90;;;;;;;33.09;21.09;100481.25;5093877;28;20076;-79
2022/08/26 11:08:47;;;;;;;13.77;10.43;;;;;;;33.18;21.22;100485.03;5083892;28;20098;-78
2022/08/26 11:11:40;;;;;;;11.32;9.88;;;;;;;33.14;21.19;100480.88;5075547;28;20047;-80
2022/08/26 11:14:19;;;;;;;12.15;8.70;;;;;;;33.28;20.53;100485.13;5093495;28;20466;-78
2022/08/26 11:16:57;;;;;;;11.03;8.07;;;;;;;33.32;19.82;100479.38;5093784;28;20147;-78
2022/08/26 11:19:38;;;;;;;10.43;8.55;;;;;;;33.47;19.89;100474.50;5093360;28;20469;-79
2022/08/26 11:22:29;;;;;;;11.13;8.20;;;;;;;33.65;19.24;100480.28;5093446;28;20113;-79
2022/08/26 11:24:56;;;;;;;11.18;8.63;;;;;;;33.84;19.43;100476.88;5093699;28;20105;-79
2022/08/26 11:27:36;;;;;;;11.98;8.38;;;;;;;33.94;19.00;100474.22;5093055;28;20052;-78
2022/08/26 11:30:12;;;;;;;10.00;8.55;;;;;;;34.17;18.34;100475.00;5093304;28;20052;-77
2022/08/26 11:32:39;;;;;;;11.98;8.32;;;;;;;34.45;18.47;100462.63;5093261;28;20523;-80
2022/08/26 11:35:08;;;;;;;13.05;8.90;;;;;;;34.37;18.91;100468.69;5093462;28;20151;-79
2022/08/26 11:37:38;;;;;;;12.07;8.35;;;;;;;34.32;18.78;100448.44;5093212;28;20050;-80